sensor_id;sensor_type;location;lat;lon;timestamp;P1;durP1;ratioP1;P2;durP2;ratioP2
6547;SDS011;3307;52.416;16.862;2023-05-02T00:00:46;12.90;;;11.23;;
6547;SDS011;3307;52.416;16.862;2023-05-02T00:03:12;18.57;;;12.37;;
6547;SDS011;3307;52.416;16.862;2023-05-02T00:05:37;20.07;;;12.20;;
6547;SDS011;3307;52.416;16.862;2023-05-02T00:08:03;14.10;;;11.70;;
6547;SDS011;3307;52.416;16.862;2023-05-02T00:10:28;15.10;;;11.97;;
6547;SDS011;3307;52.416;16.862;2023-05-02T00:12:54;14.07;;;12.43;;
6547;SDS011;3307;52.416;16.862;2023-05-02T00:15:20;14.53;;;12.87;;
6547;SDS011;3307;52.416;16.862;2023-05-02T00:17:45;14.30;;;12.80;;
6547;SDS011;3307;52.416;16.862;2023-05-02T00:20:11;15.53;;;13.07;;
6547;SDS011;3307;52.416;16.862;2023-05-02T00:22:37;13.57;;;11.30;;
6547;SDS011;3307;52.416;16.862;2023-05-02T00:25:03;15.40;;;12.70;;
6547;SDS011;3307;52.416;16.862;2023-05-02T00:27:29;14.48;;;12.02;;
6547;SDS011;3307;52.416;16.862;2023-05-02T00:29:55;15.95;;;12.43;;
6547;SDS011;3307;52.416;16.862;2023-05-02T00:32:22;13.38;;;11.98;;
6547;SDS011;3307;52.416;16.862;2023-05-02T00:34:47;14.80;;;12.40;;
6547;SDS011;3307;52.416;16.862;2023-05-02T00:37:13;13.73;;;12.30;;
6547;SDS011;3307;52.416;16.862;2023-05-02T00:39:38;15.63;;;12.23;;
6547;SDS011;3307;52.416;16.862;2023-05-02T00:42:04;16.60;;;11.70;;
6547;SDS011;3307;52.416;16.862;2023-05-02T00:44:30;14.70;;;12.40;;
6547;SDS011;3307;52.416;16.862;2023-05-02T00:46:55;14.07;;;11.60;;
6547;SDS011;3307;52.416;16.862;2023-05-02T00:49:21;16.60;;;12.50;;
6547;SDS011;3307;52.416;16.862;2023-05-02T00:51:47;13.23;;;11.83;;
6547;SDS011;3307;52.416;16.862;2023-05-02T00:54:12;14.20;;;11.53;;
6547;SDS011;3307;52.416;16.862;2023-05-02T00:56:38;12.90;;;11.20;;
6547;SDS011;3307;52.416;16.862;2023-05-02T00:59:04;15.30;;;12.27;;
6547;SDS011;3307;52.416;16.862;2023-05-02T01:15:26;12.85;;;11.48;;
6547;SDS011;3307;52.416;16.862;2023-05-02T01:17:52;12.90;;;11.60;;
6547;SDS011;3307;52.416;16.862;2023-05-02T01:20:19;13.10;;;11.55;;
6547;SDS011;3307;52.416;16.862;2023-05-02T01:22:46;12.40;;;10.77;;
6547;SDS011;3307;52.416;16.862;2023-05-02T01:25:32;16.40;;;12.60;;
6547;SDS011;3307;52.416;16.862;2023-05-02T01:30:47;14.48;;;12.30;;
6547;SDS011;3307;52.416;16.862;2023-05-02T01:33:15;15.25;;;13.23;;
6547;SDS011;3307;52.416;16.862;2023-05-02T01:35:42;15.55;;;11.05;;
6547;SDS011;3307;52.416;16.862;2023-05-02T01:38:07;13.48;;;11.95;;
6547;SDS011;3307;52.416;16.862;2023-05-02T01:40:34;13.80;;;12.40;;
6547;SDS011;3307;52.416;16.862;2023-05-02T01:43:01;13.43;;;12.05;;
6547;SDS011;3307;52.416;16.862;2023-05-02T01:45:29;15.00;;;13.50;;
6547;SDS011;3307;52.416;16.862;2023-05-02T01:47:55;14.35;;;12.85;;
6547;SDS011;3307;52.416;16.862;2023-05-02T01:50:22;14.32;;;12.30;;
6547;SDS011;3307;52.416;16.862;2023-05-02T01:52:48;13.82;;;12.52;;
6547;SDS011;3307;52.416;16.862;2023-05-02T01:55:16;14.60;;;12.43;;
6547;SDS011;3307;52.416;16.862;2023-05-02T01:57:42;13.80;;;12.27;;
6547;SDS011;3307;52.416;16.862;2023-05-02T02:00:09;17.05;;;12.77;;
6547;SDS011;3307;52.416;16.862;2023-05-02T02:02:36;13.07;;;11.77;;
6547;SDS011;3307;52.416;16.862;2023-05-02T02:05:03;14.60;;;13.07;;
6547;SDS011;3307;52.416;16.862;2023-05-02T02:07:29;16.08;;;14.40;;
6547;SDS011;3307;52.416;16.862;2023-05-02T02:09:54;14.73;;;13.20;;
6547;SDS011;3307;52.416;16.862;2023-05-02T02:12:25;15.30;;;13.50;;
6547;SDS011;3307;52.416;16.862;2023-05-02T02:14:55;13.50;;;12.15;;
6547;SDS011;3307;52.416;16.862;2023-05-02T02:17:25;13.80;;;12.57;;
6547;SDS011;3307;52.416;16.862;2023-05-02T02:20:02;14.40;;;12.90;;
6547;SDS011;3307;52.416;16.862;2023-05-02T02:22:29;14.98;;;13.50;;
6547;SDS011;3307;52.416;16.862;2023-05-02T02:25:00;16.55;;;12.35;;
6547;SDS011;3307;52.416;16.862;2023-05-02T02:27:28;15.55;;;14.00;;
6547;SDS011;3307;52.416;16.862;2023-05-02T02:29:53;14.10;;;12.70;;
6547;SDS011;3307;52.416;16.862;2023-05-02T02:32:19;14.77;;;13.13;;
6547;SDS011;3307;52.416;16.862;2023-05-02T02:34:44;14.47;;;13.00;;
6547;SDS011;3307;52.416;16.862;2023-05-02T02:37:19;16.07;;;13.43;;
6547;SDS011;3307;52.416;16.862;2023-05-02T02:43:12;13.90;;;12.57;;
6547;SDS011;3307;52.416;16.862;2023-05-02T02:48:49;15.25;;;13.82;;
6547;SDS011;3307;52.416;16.862;2023-05-02T02:51:37;13.02;;;11.63;;
6547;SDS011;3307;52.416;16.862;2023-05-02T02:54:09;14.57;;;13.18;;
6547;SDS011;3307;52.416;16.862;2023-05-02T02:56:39;15.82;;;14.02;;
6547;SDS011;3307;52.416;16.862;2023-05-02T03:01:55;14.23;;;12.35;;
6547;SDS011;3307;52.416;16.862;2023-05-02T03:04:26;13.32;;;12.00;;
6547;SDS011;3307;52.416;16.862;2023-05-02T03:06:53;12.98;;;11.57;;
6547;SDS011;3307;52.416;16.862;2023-05-02T03:09:19;12.83;;;11.53;;
6547;SDS011;3307;52.416;16.862;2023-05-02T03:11:44;12.37;;;11.17;;
6547;SDS011;3307;52.416;16.862;2023-05-02T03:14:10;13.20;;;11.73;;
6547;SDS011;3307;52.416;16.862;2023-05-02T03:19:04;13.88;;;12.23;;
6547;SDS011;3307;52.416;16.862;2023-05-02T03:21:31;12.38;;;11.25;;
6547;SDS011;3307;52.416;16.862;2023-05-02T03:24:00;13.33;;;12.03;;
6547;SDS011;3307;52.416;16.862;2023-05-02T03:26:26;13.10;;;11.80;;
6547;SDS011;3307;52.416;16.862;2023-05-02T03:28:52;15.10;;;12.10;;
6547;SDS011;3307;52.416;16.862;2023-05-02T03:31:17;14.40;;;12.47;;
6547;SDS011;3307;52.416;16.862;2023-05-02T03:33:43;13.87;;;12.50;;
6547;SDS011;3307;52.416;16.862;2023-05-02T03:36:08;13.33;;;11.07;;
6547;SDS011;3307;52.416;16.862;2023-05-02T03:38:35;13.45;;;11.32;;
6547;SDS011;3307;52.416;16.862;2023-05-02T03:41:00;12.50;;;11.40;;
6547;SDS011;3307;52.416;16.862;2023-05-02T03:43:27;14.02;;;12.40;;
6547;SDS011;3307;52.416;16.862;2023-05-02T03:45:52;14.60;;;13.10;;
6547;SDS011;3307;52.416;16.862;2023-05-02T03:48:18;13.43;;;12.10;;
6547;SDS011;3307;52.416;16.862;2023-05-02T03:50:43;14.30;;;12.93;;
6547;SDS011;3307;52.416;16.862;2023-05-02T03:53:09;14.18;;;12.70;;
6547;SDS011;3307;52.416;16.862;2023-05-02T03:55:38;12.50;;;11.20;;
6547;SDS011;3307;52.416;16.862;2023-05-02T03:58:04;12.90;;;11.60;;
6547;SDS011;3307;52.416;16.862;2023-05-02T04:00:30;13.45;;;11.82;;
6547;SDS011;3307;52.416;16.862;2023-05-02T04:02:56;13.37;;;12.07;;
6547;SDS011;3307;52.416;16.862;2023-05-02T04:05:21;13.13;;;11.97;;
6547;SDS011;3307;52.416;16.862;2023-05-02T04:07:47;14.33;;;12.93;;
6547;SDS011;3307;52.416;16.862;2023-05-02T04:10:12;18.55;;;14.15;;
6547;SDS011;3307;52.416;16.862;2023-05-02T04:12:41;16.83;;;14.32;;
6547;SDS011;3307;52.416;16.862;2023-05-02T04:15:07;14.48;;;12.98;;
6547;SDS011;3307;52.416;16.862;2023-05-02T04:17:33;16.60;;;13.40;;
6547;SDS011;3307;52.416;16.862;2023-05-02T04:19:59;15.10;;;13.60;;
6547;SDS011;3307;52.416;16.862;2023-05-02T04:22:24;15.80;;;12.93;;
6547;SDS011;3307;52.416;16.862;2023-05-02T04:24:49;14.43;;;12.93;;
6547;SDS011;3307;52.416;16.862;2023-05-02T04:27:15;16.60;;;14.60;;
6547;SDS011;3307;52.416;16.862;2023-05-02T04:29:40;15.20;;;13.70;;
6547;SDS011;3307;52.416;16.862;2023-05-02T04:32:06;15.17;;;12.50;;
6547;SDS011;3307;52.416;16.862;2023-05-02T04:34:31;14.20;;;12.50;;
6547;SDS011;3307;52.416;16.862;2023-05-02T04:36:56;15.47;;;13.70;;
6547;SDS011;3307;52.416;16.862;2023-05-02T04:39:22;15.47;;;12.27;;
6547;SDS011;3307;52.416;16.862;2023-05-02T04:41:47;13.97;;;12.60;;
6547;SDS011;3307;52.416;16.862;2023-05-02T04:44:13;14.40;;;13.00;;
6547;SDS011;3307;52.416;16.862;2023-05-02T04:46:38;13.67;;;12.10;;
6547;SDS011;3307;52.416;16.862;2023-05-02T04:49:04;14.47;;;13.07;;
6547;SDS011;3307;52.416;16.862;2023-05-02T04:51:29;17.03;;;12.33;;
6547;SDS011;3307;52.416;16.862;2023-05-02T04:53:55;15.13;;;13.20;;
6547;SDS011;3307;52.416;16.862;2023-05-02T04:56:21;14.20;;;12.83;;
6547;SDS011;3307;52.416;16.862;2023-05-02T04:58:46;13.47;;;12.20;;
6547;SDS011;3307;52.416;16.862;2023-05-02T05:01:12;13.60;;;12.20;;
6547;SDS011;3307;52.416;16.862;2023-05-02T05:03:37;15.37;;;12.90;;
6547;SDS011;3307;52.416;16.862;2023-05-02T05:06:03;15.00;;;13.07;;
6547;SDS011;3307;52.416;16.862;2023-05-02T05:08:28;12.07;;;10.97;;
6547;SDS011;3307;52.416;16.862;2023-05-02T05:10:54;14.47;;;12.30;;
6547;SDS011;3307;52.416;16.862;2023-05-02T05:13:19;13.23;;;11.93;;
6547;SDS011;3307;52.416;16.862;2023-05-02T05:15:46;13.63;;;12.23;;
6547;SDS011;3307;52.416;16.862;2023-05-02T05:18:11;14.60;;;12.77;;
6547;SDS011;3307;52.416;16.862;2023-05-02T05:20:37;13.20;;;11.93;;
6547;SDS011;3307;52.416;16.862;2023-05-02T05:23:02;14.25;;;12.75;;
6547;SDS011;3307;52.416;16.862;2023-05-02T05:25:28;13.17;;;11.77;;
6547;SDS011;3307;52.416;16.862;2023-05-02T05:27:53;14.93;;;12.63;;
6547;SDS011;3307;52.416;16.862;2023-05-02T05:30:21;14.43;;;13.00;;
6547;SDS011;3307;52.416;16.862;2023-05-02T05:32:47;16.37;;;12.80;;
6547;SDS011;3307;52.416;16.862;2023-05-02T05:35:12;13.83;;;12.53;;
6547;SDS011;3307;52.416;16.862;2023-05-02T05:37:38;14.40;;;13.00;;
6547;SDS011;3307;52.416;16.862;2023-05-02T05:40:06;15.67;;;13.93;;
6547;SDS011;3307;52.416;16.862;2023-05-02T05:42:32;19.50;;;13.68;;
6547;SDS011;3307;52.416;16.862;2023-05-02T05:44:58;15.00;;;13.40;;
6547;SDS011;3307;52.416;16.862;2023-05-02T05:47:23;18.30;;;13.73;;
6547;SDS011;3307;52.416;16.862;2023-05-02T05:49:55;16.57;;;14.87;;
6547;SDS011;3307;52.416;16.862;2023-05-02T05:52:20;13.40;;;12.10;;
6547;SDS011;3307;52.416;16.862;2023-05-02T05:54:46;16.60;;;13.60;;
6547;SDS011;3307;52.416;16.862;2023-05-02T05:57:11;16.17;;;13.93;;
6547;SDS011;3307;52.416;16.862;2023-05-02T05:59:36;16.67;;;14.63;;
6547;SDS011;3307;52.416;16.862;2023-05-02T06:02:02;16.90;;;14.00;;
6547;SDS011;3307;52.416;16.862;2023-05-02T06:04:28;22.60;;;18.53;;
6547;SDS011;3307;52.416;16.862;2023-05-02T06:06:53;18.03;;;16.13;;
6547;SDS011;3307;52.416;16.862;2023-05-02T06:09:19;29.70;;;25.00;;
6547;SDS011;3307;52.416;16.862;2023-05-02T06:11:44;27.60;;;24.70;;
6547;SDS011;3307;52.416;16.862;2023-05-02T06:14:10;28.57;;;25.70;;
6547;SDS011;3307;52.416;16.862;2023-05-02T06:16:35;14.43;;;12.93;;
6547;SDS011;3307;52.416;16.862;2023-05-02T06:19:01;12.47;;;11.13;;
6547;SDS011;3307;52.416;16.862;2023-05-02T06:21:26;12.37;;;10.60;;
6547;SDS011;3307;52.416;16.862;2023-05-02T06:23:52;11.50;;;10.40;;
6547;SDS011;3307;52.416;16.862;2023-05-02T06:26:17;11.13;;;10.13;;
6547;SDS011;3307;52.416;16.862;2023-05-02T06:28:43;12.77;;;10.83;;
6547;SDS011;3307;52.416;16.862;2023-05-02T06:31:08;12.73;;;10.87;;
6547;SDS011;3307;52.416;16.862;2023-05-02T06:33:34;11.33;;;10.23;;
6547;SDS011;3307;52.416;16.862;2023-05-02T06:36:00;11.40;;;10.20;;
6547;SDS011;3307;52.416;16.862;2023-05-02T06:38:26;12.60;;;10.93;;
6547;SDS011;3307;52.416;16.862;2023-05-02T06:40:51;11.40;;;10.30;;
6547;SDS011;3307;52.416;16.862;2023-05-02T06:43:17;11.20;;;10.00;;
6547;SDS011;3307;52.416;16.862;2023-05-02T06:45:43;11.50;;;9.97;;
6547;SDS011;3307;52.416;16.862;2023-05-02T06:48:08;12.17;;;9.73;;
6547;SDS011;3307;52.416;16.862;2023-05-02T06:50:34;11.80;;;10.10;;
6547;SDS011;3307;52.416;16.862;2023-05-02T06:53:00;10.63;;;9.50;;
6547;SDS011;3307;52.416;16.862;2023-05-02T06:55:26;10.27;;;9.37;;
6547;SDS011;3307;52.416;16.862;2023-05-02T06:57:51;10.98;;;9.43;;
6547;SDS011;3307;52.416;16.862;2023-05-02T07:00:18;10.83;;;9.70;;
6547;SDS011;3307;52.416;16.862;2023-05-02T07:02:47;10.50;;;9.50;;
6547;SDS011;3307;52.416;16.862;2023-05-02T07:05:13;9.03;;;7.93;;
6547;SDS011;3307;52.416;16.862;2023-05-02T07:07:42;9.85;;;8.93;;
6547;SDS011;3307;52.416;16.862;2023-05-02T07:10:08;11.40;;;10.20;;
6547;SDS011;3307;52.416;16.862;2023-05-02T07:12:34;9.70;;;8.73;;
6547;SDS011;3307;52.416;16.862;2023-05-02T07:14:59;10.20;;;9.10;;
6547;SDS011;3307;52.416;16.862;2023-05-02T07:17:25;10.77;;;9.67;;
6547;SDS011;3307;52.416;16.862;2023-05-02T07:19:50;9.90;;;9.00;;
6547;SDS011;3307;52.416;16.862;2023-05-02T07:22:16;9.88;;;8.88;;
6547;SDS011;3307;52.416;16.862;2023-05-02T07:24:42;12.83;;;10.00;;
6547;SDS011;3307;52.416;16.862;2023-05-02T07:27:11;9.18;;;8.25;;
6547;SDS011;3307;52.416;16.862;2023-05-02T07:29:37;11.55;;;8.82;;
6547;SDS011;3307;52.416;16.862;2023-05-02T07:32:03;9.20;;;8.30;;
6547;SDS011;3307;52.416;16.862;2023-05-02T07:34:29;10.52;;;9.50;;
6547;SDS011;3307;52.416;16.862;2023-05-02T07:36:55;9.60;;;8.40;;
6547;SDS011;3307;52.416;16.862;2023-05-02T07:39:21;9.80;;;8.80;;
6547;SDS011;3307;52.416;16.862;2023-05-02T07:41:49;7.90;;;7.20;;
6547;SDS011;3307;52.416;16.862;2023-05-02T07:44:17;9.02;;;7.40;;
6547;SDS011;3307;52.416;16.862;2023-05-02T07:46:43;8.77;;;7.70;;
6547;SDS011;3307;52.416;16.862;2023-05-02T07:49:08;9.37;;;8.37;;
6547;SDS011;3307;52.416;16.862;2023-05-02T07:51:35;11.47;;;8.60;;
6547;SDS011;3307;52.416;16.862;2023-05-02T07:54:00;9.23;;;8.43;;
6547;SDS011;3307;52.416;16.862;2023-05-02T07:56:26;9.10;;;8.20;;
6547;SDS011;3307;52.416;16.862;2023-05-02T07:58:52;8.77;;;7.53;;
6547;SDS011;3307;52.416;16.862;2023-05-02T08:01:18;8.83;;;7.77;;
6547;SDS011;3307;52.416;16.862;2023-05-02T08:03:43;8.43;;;7.60;;
6547;SDS011;3307;52.416;16.862;2023-05-02T08:06:09;8.23;;;7.43;;
6547;SDS011;3307;52.416;16.862;2023-05-02T08:08:35;8.32;;;7.53;;
6547;SDS011;3307;52.416;16.862;2023-05-02T08:11:01;8.77;;;7.90;;
6547;SDS011;3307;52.416;16.862;2023-05-02T08:13:27;9.00;;;7.60;;
6547;SDS011;3307;52.416;16.862;2023-05-02T08:15:52;7.77;;;7.07;;
6547;SDS011;3307;52.416;16.862;2023-05-02T08:18:25;8.90;;;7.37;;
6547;SDS011;3307;52.416;16.862;2023-05-02T08:20:51;8.93;;;8.10;;
6547;SDS011;3307;52.416;16.862;2023-05-02T08:23:17;8.67;;;7.93;;
6547;SDS011;3307;52.416;16.862;2023-05-02T08:25:42;8.47;;;7.57;;
6547;SDS011;3307;52.416;16.862;2023-05-02T08:28:08;8.10;;;7.33;;
6547;SDS011;3307;52.416;16.862;2023-05-02T08:30:33;8.13;;;7.43;;
6547;SDS011;3307;52.416;16.862;2023-05-02T08:32:58;9.17;;;7.77;;
6547;SDS011;3307;52.416;16.862;2023-05-02T08:35:24;9.40;;;8.50;;
6547;SDS011;3307;52.416;16.862;2023-05-02T08:37:49;8.50;;;7.70;;
6547;SDS011;3307;52.416;16.862;2023-05-02T08:40:14;8.30;;;7.20;;
6547;SDS011;3307;52.416;16.862;2023-05-02T08:42:41;8.40;;;7.60;;
6547;SDS011;3307;52.416;16.862;2023-05-02T08:45:10;8.77;;;7.83;;
6547;SDS011;3307;52.416;16.862;2023-05-02T08:47:37;9.00;;;8.20;;
6547;SDS011;3307;52.416;16.862;2023-05-02T08:50:04;11.27;;;8.20;;
6547;SDS011;3307;52.416;16.862;2023-05-02T08:52:31;9.53;;;8.67;;
6547;SDS011;3307;52.416;16.862;2023-05-02T08:54:56;8.87;;;8.07;;
6547;SDS011;3307;52.416;16.862;2023-05-02T08:57:22;9.90;;;9.00;;
6547;SDS011;3307;52.416;16.862;2023-05-02T08:59:48;9.80;;;8.93;;
6547;SDS011;3307;52.416;16.862;2023-05-02T09:02:22;10.13;;;8.77;;
6547;SDS011;3307;52.416;16.862;2023-05-02T09:04:56;9.97;;;7.83;;
6547;SDS011;3307;52.416;16.862;2023-05-02T09:07:25;8.67;;;7.70;;
6547;SDS011;3307;52.416;16.862;2023-05-02T09:09:51;7.93;;;7.22;;
6547;SDS011;3307;52.416;16.862;2023-05-02T09:12:23;8.10;;;7.40;;
6547;SDS011;3307;52.416;16.862;2023-05-02T09:15:05;8.45;;;7.55;;
6547;SDS011;3307;52.416;16.862;2023-05-02T09:20:09;7.00;;;6.40;;
6547;SDS011;3307;52.416;16.862;2023-05-02T09:22:36;11.37;;;7.80;;
6547;SDS011;3307;52.416;16.862;2023-05-02T09:25:02;7.63;;;6.93;;
6547;SDS011;3307;52.416;16.862;2023-05-02T09:27:33;7.60;;;7.03;;
6547;SDS011;3307;52.416;16.862;2023-05-02T09:30:21;7.90;;;7.10;;
6547;SDS011;3307;52.416;16.862;2023-05-02T09:32:48;8.20;;;7.00;;
6547;SDS011;3307;52.416;16.862;2023-05-02T09:35:20;8.27;;;7.57;;
6547;SDS011;3307;52.416;16.862;2023-05-02T09:37:52;8.10;;;7.40;;
6547;SDS011;3307;52.416;16.862;2023-05-02T09:40:19;8.83;;;7.80;;
6547;SDS011;3307;52.416;16.862;2023-05-02T09:42:45;7.30;;;6.70;;
6547;SDS011;3307;52.416;16.862;2023-05-02T09:45:23;7.70;;;7.00;;
6547;SDS011;3307;52.416;16.862;2023-05-02T09:47:50;7.83;;;6.90;;
6547;SDS011;3307;52.416;16.862;2023-05-02T09:50:31;7.90;;;6.87;;
6547;SDS011;3307;52.416;16.862;2023-05-02T09:53:01;9.17;;;7.43;;
6547;SDS011;3307;52.416;16.862;2023-05-02T09:55:30;7.80;;;7.03;;
6547;SDS011;3307;52.416;16.862;2023-05-02T09:57:56;7.70;;;7.03;;
6547;SDS011;3307;52.416;16.862;2023-05-02T10:00:36;10.50;;;9.60;;
6547;SDS011;3307;52.416;16.862;2023-05-02T10:03:03;8.10;;;7.30;;
6547;SDS011;3307;52.416;16.862;2023-05-02T10:05:31;7.53;;;6.53;;
6547;SDS011;3307;52.416;16.862;2023-05-02T10:07:57;7.87;;;5.40;;
6547;SDS011;3307;52.416;16.862;2023-05-02T10:10:23;5.97;;;5.37;;
6547;SDS011;3307;52.416;16.862;2023-05-02T10:12:49;5.80;;;5.00;;
6547;SDS011;3307;52.416;16.862;2023-05-02T10:15:16;5.30;;;3.73;;
6547;SDS011;3307;52.416;16.862;2023-05-02T10:17:47;4.60;;;4.20;;
6547;SDS011;3307;52.416;16.862;2023-05-02T10:20:13;5.53;;;4.80;;
6547;SDS011;3307;52.416;16.862;2023-05-02T10:22:44;5.82;;;4.85;;
6547;SDS011;3307;52.416;16.862;2023-05-02T10:25:10;6.53;;;4.78;;
6547;SDS011;3307;52.416;16.862;2023-05-02T10:27:37;6.90;;;5.53;;
6547;SDS011;3307;52.416;16.862;2023-05-02T10:30:02;5.47;;;4.97;;
6547;SDS011;3307;52.416;16.862;2023-05-02T10:32:31;6.40;;;4.70;;
6547;SDS011;3307;52.416;16.862;2023-05-02T10:34:57;5.73;;;4.63;;
6547;SDS011;3307;52.416;16.862;2023-05-02T10:37:28;6.13;;;5.47;;
6547;SDS011;3307;52.416;16.862;2023-05-02T10:39:54;5.43;;;4.93;;
6547;SDS011;3307;52.416;16.862;2023-05-02T10:42:19;6.73;;;4.40;;
6547;SDS011;3307;52.416;16.862;2023-05-02T10:44:45;4.77;;;4.27;;
6547;SDS011;3307;52.416;16.862;2023-05-02T10:47:20;5.90;;;4.47;;
6547;SDS011;3307;52.416;16.862;2023-05-02T10:52:36;6.63;;;4.80;;
6547;SDS011;3307;52.416;16.862;2023-05-02T11:00:22;7.20;;;4.50;;
6547;SDS011;3307;52.416;16.862;2023-05-02T11:02:48;6.57;;;5.30;;
6547;SDS011;3307;52.416;16.862;2023-05-02T11:05:15;5.83;;;4.57;;
6547;SDS011;3307;52.416;16.862;2023-05-02T11:07:41;6.38;;;4.55;;
6547;SDS011;3307;52.416;16.862;2023-05-02T11:12:51;4.73;;;4.23;;
6547;SDS011;3307;52.416;16.862;2023-05-02T11:16:02;4.20;;;3.80;;
6547;SDS011;3307;52.416;16.862;2023-05-02T11:18:06;3.90;;;3.60;;
6547;SDS011;3307;52.416;16.862;2023-05-02T11:20:32;5.70;;;4.27;;
6547;SDS011;3307;52.416;16.862;2023-05-02T11:25:56;2.83;;;2.00;;
6547;SDS011;3307;52.416;16.862;2023-05-02T11:31:06;3.33;;;3.03;;
6547;SDS011;3307;52.416;16.862;2023-05-02T11:33:34;3.57;;;3.20;;
6547;SDS011;3307;52.416;16.862;2023-05-02T11:35:59;4.10;;;2.43;;
6547;SDS011;3307;52.416;16.862;2023-05-02T11:38:25;3.80;;;2.90;;
6547;SDS011;3307;52.416;16.862;2023-05-02T11:41:00;3.00;;;2.70;;
6547;SDS011;3307;52.416;16.862;2023-05-02T11:43:28;3.43;;;3.13;;
6547;SDS011;3307;52.416;16.862;2023-05-02T11:45:54;3.50;;;3.23;;
6547;SDS011;3307;52.416;16.862;2023-05-02T11:48:20;3.87;;;3.57;;
6547;SDS011;3307;52.416;16.862;2023-05-02T11:50:47;4.63;;;3.60;;
6547;SDS011;3307;52.416;16.862;2023-05-02T11:53:22;4.10;;;3.70;;
6547;SDS011;3307;52.416;16.862;2023-05-02T11:55:53;3.60;;;3.30;;
6547;SDS011;3307;52.416;16.862;2023-05-02T11:58:20;4.00;;;3.63;;
6547;SDS011;3307;52.416;16.862;2023-05-02T12:00:47;3.97;;;3.67;;
6547;SDS011;3307;52.416;16.862;2023-05-02T12:05:54;4.73;;;4.00;;
6547;SDS011;3307;52.416;16.862;2023-05-02T12:08:25;3.67;;;3.40;;
6547;SDS011;3307;52.416;16.862;2023-05-02T12:10:52;4.20;;;3.90;;
6547;SDS011;3307;52.416;16.862;2023-05-02T12:13:20;8.03;;;7.23;;
6547;SDS011;3307;52.416;16.862;2023-05-02T12:15:47;4.13;;;3.70;;
6547;SDS011;3307;52.416;16.862;2023-05-02T12:18:13;3.63;;;3.33;;
6547;SDS011;3307;52.416;16.862;2023-05-02T12:20:38;4.73;;;4.23;;
6547;SDS011;3307;52.416;16.862;2023-05-02T12:23:04;5.73;;;5.17;;
6547;SDS011;3307;52.416;16.862;2023-05-02T12:25:40;4.72;;;4.32;;
6547;SDS011;3307;52.416;16.862;2023-05-02T12:28:06;4.67;;;4.27;;
6547;SDS011;3307;52.416;16.862;2023-05-02T12:30:32;6.60;;;4.70;;
6547;SDS011;3307;52.416;16.862;2023-05-02T12:32:59;5.30;;;4.80;;
6547;SDS011;3307;52.416;16.862;2023-05-02T12:35:26;6.07;;;5.57;;
6547;SDS011;3307;52.416;16.862;2023-05-02T12:37:52;6.90;;;5.77;;
6547;SDS011;3307;52.416;16.862;2023-05-02T12:40:18;6.37;;;5.77;;
6547;SDS011;3307;52.416;16.862;2023-05-02T12:42:57;6.07;;;5.57;;
6547;SDS011;3307;52.416;16.862;2023-05-02T12:45:28;6.80;;;6.20;;
6547;SDS011;3307;52.416;16.862;2023-05-02T12:47:57;6.50;;;5.90;;
6547;SDS011;3307;52.416;16.862;2023-05-02T12:50:34;6.37;;;5.87;;
6547;SDS011;3307;52.416;16.862;2023-05-02T12:53:02;8.30;;;6.77;;
6547;SDS011;3307;52.416;16.862;2023-05-02T12:55:28;8.57;;;7.77;;
6547;SDS011;3307;52.416;16.862;2023-05-02T12:58:29;6.80;;;6.27;;
6547;SDS011;3307;52.416;16.862;2023-05-02T13:00:50;6.70;;;6.20;;
6547;SDS011;3307;52.416;16.862;2023-05-02T13:03:16;6.73;;;6.20;;
6547;SDS011;3307;52.416;16.862;2023-05-02T13:05:41;7.70;;;6.70;;
6547;SDS011;3307;52.416;16.862;2023-05-02T13:08:06;6.87;;;6.27;;
6547;SDS011;3307;52.416;16.862;2023-05-02T13:10:32;7.07;;;6.47;;
6547;SDS011;3307;52.416;16.862;2023-05-02T13:12:57;8.17;;;6.80;;
6547;SDS011;3307;52.416;16.862;2023-05-02T13:15:22;7.90;;;7.20;;
6547;SDS011;3307;52.416;16.862;2023-05-02T13:17:49;11.47;;;7.63;;
6547;SDS011;3307;52.416;16.862;2023-05-02T13:20:15;7.47;;;6.67;;
6547;SDS011;3307;52.416;16.862;2023-05-02T13:22:40;8.00;;;7.33;;
6547;SDS011;3307;52.416;16.862;2023-05-02T13:25:06;7.23;;;6.53;;
6547;SDS011;3307;52.416;16.862;2023-05-02T13:27:32;6.90;;;6.30;;
6547;SDS011;3307;52.416;16.862;2023-05-02T13:29:58;7.70;;;6.43;;
6547;SDS011;3307;52.416;16.862;2023-05-02T13:32:25;6.00;;;5.50;;
6547;SDS011;3307;52.416;16.862;2023-05-02T13:34:51;5.70;;;5.23;;
6547;SDS011;3307;52.416;16.862;2023-05-02T13:37:16;5.70;;;5.20;;
6547;SDS011;3307;52.416;16.862;2023-05-02T13:39:42;5.27;;;4.00;;
6547;SDS011;3307;52.416;16.862;2023-05-02T13:42:07;7.17;;;5.80;;
6547;SDS011;3307;52.416;16.862;2023-05-02T13:44:33;5.77;;;4.37;;
6547;SDS011;3307;52.416;16.862;2023-05-02T13:46:58;4.67;;;4.27;;
6547;SDS011;3307;52.416;16.862;2023-05-02T13:49:23;6.03;;;4.07;;
6547;SDS011;3307;52.416;16.862;2023-05-02T13:51:49;5.53;;;3.57;;
6547;SDS011;3307;52.416;16.862;2023-05-02T13:54:15;3.60;;;3.30;;
6547;SDS011;3307;52.416;16.862;2023-05-02T13:56:40;3.43;;;3.13;;
6547;SDS011;3307;52.416;16.862;2023-05-02T13:59:06;4.53;;;4.20;;
6547;SDS011;3307;52.416;16.862;2023-05-02T14:01:32;3.10;;;2.90;;
6547;SDS011;3307;52.416;16.862;2023-05-02T14:03:57;4.20;;;3.80;;
6547;SDS011;3307;52.416;16.862;2023-05-02T14:06:23;3.27;;;3.07;;
6547;SDS011;3307;52.416;16.862;2023-05-02T14:08:48;4.90;;;3.20;;
6547;SDS011;3307;52.416;16.862;2023-05-02T14:11:15;4.23;;;3.83;;
6547;SDS011;3307;52.416;16.862;2023-05-02T14:13:41;2.53;;;2.00;;
6547;SDS011;3307;52.416;16.862;2023-05-02T14:16:06;2.60;;;2.40;;
6547;SDS011;3307;52.416;16.862;2023-05-02T14:18:32;3.80;;;3.40;;
6547;SDS011;3307;52.416;16.862;2023-05-02T14:20:57;3.33;;;2.73;;
6547;SDS011;3307;52.416;16.862;2023-05-02T14:23:24;2.40;;;2.10;;
6547;SDS011;3307;52.416;16.862;2023-05-02T14:25:51;2.43;;;2.23;;
6547;SDS011;3307;52.416;16.862;2023-05-02T14:28:16;2.33;;;1.90;;
6547;SDS011;3307;52.416;16.862;2023-05-02T14:30:42;2.50;;;2.30;;
6547;SDS011;3307;52.416;16.862;2023-05-02T14:33:07;2.80;;;2.17;;
6547;SDS011;3307;52.416;16.862;2023-05-02T14:35:32;2.07;;;1.87;;
6547;SDS011;3307;52.416;16.862;2023-05-02T14:37:58;2.70;;;2.00;;
6547;SDS011;3307;52.416;16.862;2023-05-02T14:40:23;1.80;;;1.70;;
6547;SDS011;3307;52.416;16.862;2023-05-02T14:42:49;2.60;;;2.00;;
6547;SDS011;3307;52.416;16.862;2023-05-02T14:45:14;1.33;;;1.23;;
6547;SDS011;3307;52.416;16.862;2023-05-02T14:47:40;4.13;;;1.60;;
6547;SDS011;3307;52.416;16.862;2023-05-02T14:50:05;1.47;;;1.33;;
6547;SDS011;3307;52.416;16.862;2023-05-02T14:52:31;1.80;;;1.70;;
6547;SDS011;3307;52.416;16.862;2023-05-02T14:55:00;2.20;;;1.63;;
6547;SDS011;3307;52.416;16.862;2023-05-02T14:57:26;2.20;;;2.00;;
6547;SDS011;3307;52.416;16.862;2023-05-02T14:59:51;2.20;;;1.65;;
6547;SDS011;3307;52.416;16.862;2023-05-02T15:02:17;1.73;;;1.63;;
6547;SDS011;3307;52.416;16.862;2023-05-02T15:04:42;1.43;;;1.33;;
6547;SDS011;3307;52.416;16.862;2023-05-02T15:07:08;1.47;;;1.37;;
6547;SDS011;3307;52.416;16.862;2023-05-02T15:09:34;1.50;;;1.40;;
6547;SDS011;3307;52.416;16.862;2023-05-02T15:11:59;1.40;;;1.30;;
6547;SDS011;3307;52.416;16.862;2023-05-02T15:14:26;2.17;;;1.70;;
6547;SDS011;3307;52.416;16.862;2023-05-02T15:16:52;2.53;;;1.67;;
6547;SDS011;3307;52.416;16.862;2023-05-02T15:19:18;2.35;;;1.58;;
6547;SDS011;3307;52.416;16.862;2023-05-02T15:21:45;1.40;;;1.30;;
6547;SDS011;3307;52.416;16.862;2023-05-02T15:24:11;2.87;;;1.30;;
6547;SDS011;3307;52.416;16.862;2023-05-02T15:26:36;2.90;;;1.83;;
6547;SDS011;3307;52.416;16.862;2023-05-02T15:29:04;2.50;;;1.40;;
6547;SDS011;3307;52.416;16.862;2023-05-02T15:31:29;1.53;;;1.43;;
6547;SDS011;3307;52.416;16.862;2023-05-02T15:33:55;2.27;;;1.90;;
6547;SDS011;3307;52.416;16.862;2023-05-02T15:36:20;2.00;;;1.90;;